Wichita Falls, TX (76310)

10:35 AM CST on February 10, 2016 (GMT -0600)
Wichita Falls | | Change Station
CLOSE
Current Station
Personal Weather Station
Location: WICHITA FALLS, TX
Elevation: 984 ft
Nearby Weather Stations
Active Advisory: Fire Weather Warning

Elev 984 ft 33.85 °N, 98.54 °W | Updated 4 minutes ago

Clear
Clear
49.3 °F
Feels Like 49 °F
N
2.8
Wind Variable Wind from SW
Gusts 3.8 mph

Today
High -- | Low -- °F
--% Chance of Precip.
Yesterday
High -- | Low -- °F
Precip. -- in
Pressure 30.28 in
Visibility 10.0 miles
Clouds Clear
Windchill 49 °F
Dew Point 34 °F
Humidity 56%
Rainfall 0.00 in
Snow Depth Not available.
7:24 AM 6:13 PM
Waxing Crescent, 6% visible
METAR KCWC 101615Z AUTO 19012G17KT 150V210 10SM CLR 11/M01 A3028 RMK AO2 T01111010
Pressure 30.28 in
Visibility 10.0 miles
Clouds Clear
Windchill 49 °F
Dew Point 34 °F
Humidity 56%
Rainfall 0.00 in
Snow Depth Not available.
7:24 AM 6:13 PM
Waxing Crescent, 6% visible
METAR KCWC 101615Z AUTO 19012G17KT 150V210 10SM CLR 11/M01 A3028 RMK AO2 T01111010

10-Day Weather Forecast

Almanac

Astronomy

Feb. 10, 2016 Rise Set
Actual Time
Civil Twilight
Nautical Twilight
Astronomical Twilight
Moon
Length of Visible Light
Length of Day
Tomorrow will be .
, % of the Moon is Illuminated

Today's Extremes

State Highs State Lows

Community

WunderPhotos

Upload Photos

1,891,881 photos uploaded!

WunderBlog® & News

Nearby

Air Quality

  Air Quality AQ Index Pollutant
Not available.

Snow Depth

Station Depth Elevation

Earthquake Activity

City Distance Mag. Time & Date
Minimum magnitude displayed is 2.5.

Coastal Water Temperatures

Place Temperature

Stations

Nearby Weather Stations

Station Location Temp. Windchill Dew Point Humidity Wind Precip. Elev Updated Type
                   

Watches & Warnings

Fire Weather Warning
Issued: 4:21 AM CST Feb. 10, 2016 – National Weather Service

... Red flag warning in effect from 11 am this morning to 7 PM CST
this evening for windy conditions... warm temperatures and low
relative humidity for much of central and western Oklahoma... and
western North Texas...

The National Weather Service in Norman has issued a red flag
warning... which is in effect from 11 am this morning to 7 PM CST
this evening. The Fire Weather Watch is no longer in effect.

* Timing... 11 am to 7 PM.

* Wind... west to southwest 15 to 25 mph with gusts 20 to 30 mph.

* Humidity... 15 to 25 percent.

* Temperature... 65 to 80 degrees.

* Impacts... any fires that develop will likely spread rapidly.
Outdoor burning is not recommended.

Precautionary/preparedness actions...

A red flag warning means that critical fire weather conditions
are either occurring now... or will shortly. A combination of
strong winds... low relative humidity... and warm temperatures can
contribute to extreme fire behavior.



Cms